Gure Amuitz — EASO — position and weather

sailwx.info

Track history (hours):
 
Tides and Currents Weather Stations Pressure Air Temp Water Temp Dewpoint Dewpoint Depression Visibility Wind Speed Wind Dir Waves Ship Positions

Gure Amuitz

Last reported at 2015-Aug-31 05:33 UTC. Time now 2015-Sep-02 00:24 UTC.
Position N 43°30' W 001°51'.

Length 28 m.

Type: Fishing. MMSI: 224010590.

Date/timePositionNaut miles runAvg speedWind from/ knotsBaromVisibWave heightAir tempDewpointWater temp
2015-Aug-31 05:33N 43°30' W 001°51'8 7.5
2015-Aug-31 04:31N 43°23' W 001°47'0 0.1
2015-Aug-31 03:32N 43°23' W 001°48'0 0.0
2015-Aug-31 02:33N 43°23' W 001°48'0 0.0
2015-Aug-31 01:33N 43°23' W 001°48'0 0.0
2015-Aug-31 00:33N 43°23' W 001°48'3 2.7
2015-Aug-30 23:29N 43°26' W 001°49'  
2015-Aug-27 12:05N 44°12' W 003°29'4 7.6
2015-Aug-27 11:32N 44°08' W 003°26'75 6.2
2015-Aug-26 23:32N 43°41' W 005°03'10 9.5
2015-Aug-26 22:29N 43°39' W 005°17'9 9.6
2015-Aug-26 21:32N 43°38' W 005°29'160 3.2
2015-Aug-24 19:33N 43°25' W 001°49'2 1.8
2015-Aug-24 18:34N 43°23' W 001°48'0 0.0
2015-Aug-24 17:33N 43°23' W 001°48'0 0.0
2015-Aug-24 16:34N 43°23' W 001°48'0 0.0
2015-Aug-24 15:33N 43°23' W 001°48'0 0.0
2015-Aug-24 14:34N 43°23' W 001°48'0 0.0
2015-Aug-24 13:33N 43°23' W 001°48'0 0.0
2015-Aug-24 12:33N 43°23' W 001°48'0 0.0
2015-Aug-24 11:33N 43°23' W 001°48'0 0.0
2015-Aug-24 10:33N 43°23' W 001°48'0 0.0
2015-Aug-24 09:33N 43°23' W 001°48'0 0.0
2015-Aug-24 08:33N 43°23' W 001°48'0 0.0
2015-Aug-24 07:33N 43°23' W 001°48'0 0.0
2015-Aug-24 06:33N 43°23' W 001°48'0 0.0
2015-Aug-24 05:33N 43°23' W 001°48'0 0.0
2015-Aug-24 04:33N 43°23' W 001°48'0 0.1
2015-Aug-24 03:33N 43°23' W 001°47'0 0.1
2015-Aug-24 02:26N 43°23' W 001°48'0 0.0
2015-Aug-23 23:28N 43°23' W 001°48'0 0.0
2015-Aug-23 22:19N 43°23' W 001°48'0 0.0
2015-Aug-23 21:34N 43°23' W 001°48'0 0.0
2015-Aug-23 20:34N 43°23' W 001°48'0 0.0
2015-Aug-23 19:33N 43°23' W 001°48'0 0.0
2015-Aug-23 18:30N 43°23' W 001°48'0 0.0
2015-Aug-23 17:16N 43°23' W 001°48'0 0.0
2015-Aug-23 16:26N 43°23' W 001°48'0 0.0
2015-Aug-23 15:33N 43°23' W 001°48'0 0.0
2015-Aug-23 14:31N 43°23' W 001°48'0 0.0
2015-Aug-23 13:33N 43°23' W 001°48'0 0.0
2015-Aug-23 12:14N 43°23' W 001°48'0 0.0
2015-Aug-23 11:33N 43°23' W 001°48'0 0.0
2015-Aug-23 10:34N 43°23' W 001°48'0 0.0
2015-Aug-23 09:34N 43°23' W 001°48'0 0.0
2015-Aug-23 08:34N 43°23' W 001°48'0 0.0
2015-Aug-23 07:33N 43°23' W 001°48'0 0.0
2015-Aug-23 06:19N 43°23' W 001°48'0 0.0
2015-Aug-23 05:31N 43°23' W 001°48'0 0.0
2015-Aug-23 04:25N 43°23' W 001°48'1 1.0
2015-Aug-23 03:32N 43°24' W 001°47'101 2.8
2015-Aug-21 15:33N 44°34' W 003°28'8 8.0
2015-Aug-21 14:33N 44°42' W 003°27'3 2.9
2015-Aug-21 13:29N 44°45' W 003°28'6 6.5
2015-Aug-21 12:33N 44°45' W 003°36'8 8.1
2015-Aug-21 11:33N 44°50' W 003°46'8 6.6
2015-Aug-21 10:22N 44°56' W 003°54'31 7.2
2015-Aug-21 06:04N 45°15' W 004°27'  
Track history (hours):
 
Tides and Currents Weather Stations Pressure Air Temp Water Temp Dewpoint Dewpoint Depression Visibility Wind Speed Wind Dir Waves Ship Positions

Gure Amuitz

Last reported at 2015-Aug-31 05:33 UTC. Time now 2015-Sep-02 00:24 UTC.
Position N 43°30' W 001°51'.

Length 28 m.

Type: Fishing. MMSI: 224010590.

Date/timePositionNaut miles runAvg speedWind from/ knotsBaromVisibWave heightAir tempDewpointWater temp
2015-Aug-31 05:33N 43°30' W 001°51'8 7.5
2015-Aug-31 04:31N 43°23' W 001°47'0 0.1
2015-Aug-31 03:32N 43°23' W 001°48'0 0.0
2015-Aug-31 02:33N 43°23' W 001°48'0 0.0
2015-Aug-31 01:33N 43°23' W 001°48'0 0.0
2015-Aug-31 00:33N 43°23' W 001°48'3 2.7
2015-Aug-30 23:29N 43°26' W 001°49'  
2015-Aug-27 12:05N 44°12' W 003°29'4 7.6
2015-Aug-27 11:32N 44°08' W 003°26'75 6.2
2015-Aug-26 23:32N 43°41' W 005°03'10 9.5
2015-Aug-26 22:29N 43°39' W 005°17'9 9.6
2015-Aug-26 21:32N 43°38' W 005°29'160 3.2
2015-Aug-24 19:33N 43°25' W 001°49'2 1.8
2015-Aug-24 18:34N 43°23' W 001°48'0 0.0
2015-Aug-24 17:33N 43°23' W 001°48'0 0.0
2015-Aug-24 16:34N 43°23' W 001°48'0 0.0
2015-Aug-24 15:33N 43°23' W 001°48'0 0.0
2015-Aug-24 14:34N 43°23' W 001°48'0 0.0
2015-Aug-24 13:33N 43°23' W 001°48'0 0.0
2015-Aug-24 12:33N 43°23' W 001°48'0 0.0
2015-Aug-24 11:33N 43°23' W 001°48'0 0.0
2015-Aug-24 10:33N 43°23' W 001°48'0 0.0
2015-Aug-24 09:33N 43°23' W 001°48'0 0.0
2015-Aug-24 08:33N 43°23' W 001°48'0 0.0
2015-Aug-24 07:33N 43°23' W 001°48'0 0.0
2015-Aug-24 06:33N 43°23' W 001°48'0 0.0
2015-Aug-24 05:33N 43°23' W 001°48'0 0.0
2015-Aug-24 04:33N 43°23' W 001°48'0 0.1
2015-Aug-24 03:33N 43°23' W 001°47'0 0.1
2015-Aug-24 02:26N 43°23' W 001°48'0 0.0
2015-Aug-23 23:28N 43°23' W 001°48'0 0.0
2015-Aug-23 22:19N 43°23' W 001°48'0 0.0
2015-Aug-23 21:34N 43°23' W 001°48'0 0.0
2015-Aug-23 20:34N 43°23' W 001°48'0 0.0
2015-Aug-23 19:33N 43°23' W 001°48'0 0.0
2015-Aug-23 18:30N 43°23' W 001°48'0 0.0
2015-Aug-23 17:16N 43°23' W 001°48'0 0.0
2015-Aug-23 16:26N 43°23' W 001°48'0 0.0
2015-Aug-23 15:33N 43°23' W 001°48'0 0.0
2015-Aug-23 14:31N 43°23' W 001°48'0 0.0
2015-Aug-23 13:33N 43°23' W 001°48'0 0.0
2015-Aug-23 12:14N 43°23' W 001°48'0 0.0
2015-Aug-23 11:33N 43°23' W 001°48'0 0.0
2015-Aug-23 10:34N 43°23' W 001°48'0 0.0
2015-Aug-23 09:34N 43°23' W 001°48'0 0.0
2015-Aug-23 08:34N 43°23' W 001°48'0 0.0
2015-Aug-23 07:33N 43°23' W 001°48'0 0.0
2015-Aug-23 06:19N 43°23' W 001°48'0 0.0
2015-Aug-23 05:31N 43°23' W 001°48'0 0.0
2015-Aug-23 04:25N 43°23' W 001°48'1 1.0
2015-Aug-23 03:32N 43°24' W 001°47'101 2.8
2015-Aug-21 15:33N 44°34' W 003°28'8 8.0
2015-Aug-21 14:33N 44°42' W 003°27'3 2.9
2015-Aug-21 13:29N 44°45' W 003°28'6 6.5
2015-Aug-21 12:33N 44°45' W 003°36'8 8.1
2015-Aug-21 11:33N 44°50' W 003°46'8 6.6
2015-Aug-21 10:22N 44°56' W 003°54'31 7.2
2015-Aug-21 06:04N 45°15' W 004°27'  

Dump ship's entire track history